Time;durP1;ratioP1;P1;durP2;ratioP2;P2;SDS_P1;SDS_P2;PMS_P1;PMS_P2;Temp;Humidity;BMP_temperature;BMP_pressure;BME280_temperature;BME280_humidity;BME280_pressure;Samples;Min_cycle;Max_cycle;Signal;HPM_P1;HPM_P2
2023/01/14 00:02:08;;;;;;;1.13;1.02;;;7.30;99.90;;;;;;6287341;23;20025;-63
2023/01/14 00:04:43;;;;;;;2.17;0.93;;;7.30;99.90;;;;;;6360393;23;20060;-63
2023/01/14 00:07:16;;;;;;;1.33;1.15;;;7.30;99.90;;;;;;6302212;23;20024;-63
2023/01/14 00:09:47;;;;;;;1.77;0.93;;;7.20;99.90;;;;;;6287045;23;20050;-65
2023/01/14 00:12:19;;;;;;;2.20;0.70;;;7.20;99.90;;;;;;6264042;23;20007;-64
2023/01/14 00:14:55;;;;;;;0.90;0.80;;;7.30;99.90;;;;;;6287933;23;19991;-63
2023/01/14 00:17:32;;;;;;;2.00;1.13;;;7.30;99.90;;;;;;6264845;23;20058;-63
2023/01/14 00:20:08;;;;;;;3.72;1.00;;;7.40;99.90;;;;;;6264226;23;20580;-66
2023/01/14 00:22:45;;;;;;;1.98;0.93;;;7.40;99.90;;;;;;6286795;23;20219;-64
2023/01/14 00:25:23;;;;;;;2.15;1.00;;;7.40;99.90;;;;;;6310955;23;20196;-65
2023/01/14 00:27:57;;;;;;;2.63;1.00;;;7.40;99.90;;;;;;6287752;23;20453;-62
2023/01/14 00:30:28;;;;;;;2.63;1.30;;;7.40;99.90;;;;;;6287280;23;20003;-64
2023/01/14 00:33:01;;;;;;;0.70;0.70;;;7.40;99.90;;;;;;6264381;23;20007;-63
2023/01/14 00:35:37;;;;;;;2.83;1.20;;;7.40;99.90;;;;;;6285097;23;20487;-64
2023/01/14 00:38:10;;;;;;;1.33;1.13;;;7.40;99.90;;;;;;6263441;23;20060;-63
2023/01/14 00:40:44;;;;;;;7.22;1.65;;;7.40;99.90;;;;;;6265124;23;20046;-64
2023/01/14 00:43:16;;;;;;;;;;;7.50;99.90;;;;;;6263961;23;20026;-64
2023/01/14 00:45:47;;;;;;;0.90;0.85;;;7.50;99.90;;;;;;6287424;23;20311;-64
2023/01/14 00:48:20;;;;;;;1.42;1.02;;;7.50;99.90;;;;;;6310675;23;20056;-64
2023/01/14 00:50:59;;;;;;;0.80;0.80;;;7.50;99.90;;;;;;6262290;23;20038;-63
2023/01/14 00:53:31;;;;;;;3.70;1.10;;;7.50;99.90;;;;;;6288134;23;19999;-63
2023/01/14 00:56:04;;;;;;;4.72;0.90;;;7.50;99.90;;;;;;6285719;23;20001;-63
2023/01/14 00:58:37;;;;;;;1.77;0.77;;;7.60;99.90;;;;;;6286746;23;19998;-62
2023/01/14 01:01:09;;;;;;;0.85;0.82;;;7.60;99.90;;;;;;6258178;23;20025;-71
2023/01/14 01:03:45;;;;;;;2.92;1.10;;;7.60;99.90;;;;;;6253889;23;20026;-72
2023/01/14 01:06:21;;;;;;;1.92;1.10;;;7.70;99.90;;;;;;6197399;23;20026;-71
2023/01/14 01:09:03;;;;;;;3.05;1.02;;;7.70;99.90;;;;;;6210200;23;20055;-74
2023/01/14 01:11:40;;;;;;;0.88;0.75;;;7.70;99.90;;;;;;6209654;23;20284;-72
2023/01/14 01:14:11;;;;;;;1.77;1.00;;;7.60;99.90;;;;;;6210159;23;20355;-71
2023/01/14 01:16:48;;;;;;;4.85;1.02;;;7.60;99.90;;;;;;6233166;23;19999;-75
2023/01/14 01:19:19;;;;;;;2.00;0.93;;;7.60;99.90;;;;;;6233011;23;20006;-73
2023/01/14 01:21:55;;;;;;;1.17;0.90;;;7.60;99.90;;;;;;6230951;23;20569;-73
2023/01/14 01:24:32;;;;;;;3.90;1.13;;;7.50;99.90;;;;;;6209183;23;20022;-72
2023/01/14 01:27:04;;;;;;;2.70;1.10;;;7.30;99.90;;;;;;6210986;23;20058;-73
2023/01/14 01:29:38;;;;;;;0.88;0.88;;;7.30;99.90;;;;;;6258586;23;20006;-70
2023/01/14 01:32:14;;;;;;;1.20;1.10;;;7.30;99.90;;;;;;6211091;23;20000;-73
2023/01/14 01:34:47;;;;;;;1.90;1.10;;;7.40;99.90;;;;;;6236774;23;20146;-71
2023/01/14 01:37:19;;;;;;;1.20;1.10;;;7.40;99.90;;;;;;6207658;23;20530;-71
2023/01/14 01:39:50;;;;;;;1.42;1.33;;;7.40;99.90;;;;;;6234282;23;20011;-74
2023/01/14 01:42:28;;;;;;;1.00;1.00;;;7.40;99.90;;;;;;6235515;23;20491;-73
2023/01/14 01:45:45;;;;;;;1.30;0.98;;;7.40;99.90;;;;;;6236867;23;20005;-70
2023/01/14 01:48:28;;;;;;;1.00;0.90;;;7.40;99.90;;;;;;6242039;23;20003;-69
2023/01/14 01:51:09;;;;;;;1.20;1.00;;;7.40;99.90;;;;;;6231908;23;19995;-75
2023/01/14 01:53:45;;;;;;;1.15;0.90;;;7.30;99.90;;;;;;6234495;23;19999;-69
2023/01/14 01:56:22;;;;;;;1.73;1.10;;;7.20;99.90;;;;;;6234046;23;20010;-72
2023/01/14 01:58:57;;;;;;;1.50;1.40;;;7.30;99.90;;;;;;6234764;23;20007;-71
2023/01/14 02:01:28;;;;;;;2.78;1.45;;;7.30;99.90;;;;;;6210224;23;20336;-70
2023/01/14 02:04:00;;;;;;;1.27;1.00;;;7.30;99.90;;;;;;6235997;23;19999;-72
2023/01/14 02:06:31;;;;;;;1.23;1.13;;;7.20;99.90;;;;;;6223120;23;20038;-72
2023/01/14 02:09:03;;;;;;;1.40;1.30;;;7.20;99.90;;;;;;6234991;23;19991;-74
2023/01/14 02:11:57;;;;;;;1.58;1.20;;;7.30;99.90;;;;;;6211216;23;19995;-75
2023/01/14 02:14:45;;;;;;;1.30;1.02;;;7.30;99.90;;;;;;6211007;23;20083;-73
2023/01/14 02:17:39;;;;;;;1.02;0.88;;;7.30;99.90;;;;;;6236845;23;20054;-72
2023/01/14 02:20:27;;;;;;;1.40;1.30;;;7.20;99.90;;;;;;6231229;23;20014;-73
2023/01/14 02:23:29;;;;;;;2.47;1.52;;;7.20;99.90;;;;;;6234700;23;20003;-73
2023/01/14 02:26:18;;;;;;;1.13;1.00;;;7.20;99.90;;;;;;6233734;23;20006;-72
2023/01/14 02:29:24;;;;;;;3.88;1.35;;;7.10;99.90;;;;;;6236501;23;20009;-75
2023/01/14 02:32:10;;;;;;;1.08;0.98;;;7.20;99.90;;;;;;6236074;23;19992;-75
2023/01/14 02:34:55;;;;;;;1.10;0.90;;;7.20;99.90;;;;;;6235101;23;19997;-78
2023/01/14 02:38:10;;;;;;;1.65;0.98;;;7.20;99.90;;;;;;6208371;23;20116;-74
2023/01/14 02:40:49;;;;;;;1.58;0.98;;;7.20;99.90;;;;;;6259261;23;20058;-73
2023/01/14 02:46:40;;;;;;;0.90;0.90;;;7.20;99.90;;;;;;6233541;23;20018;-75
2023/01/14 02:49:17;;;;;;;0.80;0.70;;;7.30;99.90;;;;;;6211674;23;20349;-73
2023/01/14 02:51:49;;;;;;;1.42;0.80;;;7.20;99.90;;;;;;6231285;23;20009;-73
2023/01/14 02:54:24;;;;;;;1.27;0.63;;;7.20;99.90;;;;;;6235584;23;20054;-70
2023/01/14 02:57:01;;;;;;;;;;;7.10;99.90;;;;;;6234489;23;20179;-70
2023/01/14 02:59:35;;;;;;;0.70;0.70;;;7.20;99.90;;;;;;6333001;23;19916;-73
2023/01/14 03:02:32;;;;;;;2.35;1.27;;;7.10;99.90;;;;;;6235024;23;20154;-74
2023/01/14 03:05:31;;;;;;;0.77;0.77;;;7.20;99.90;;;;;;6202685;23;20023;-69
2023/01/14 03:08:27;;;;;;;0.73;0.73;;;7.20;99.90;;;;;;6233026;23;20003;-74
2023/01/14 03:11:06;;;;;;;0.77;0.77;;;7.10;99.90;;;;;;6233523;23;20032;-72
2023/01/14 03:13:46;;;;;;;1.05;0.85;;;7.10;99.90;;;;;;6210670;23;20005;-77
2023/01/14 03:16:49;;;;;;;0.77;0.77;;;7.10;99.90;;;;;;6210552;23;20051;-69
2023/01/14 03:19:29;;;;;;;1.20;0.63;;;7.10;99.90;;;;;;6325864;23;20344;-70
2023/01/14 03:22:04;;;;;;;0.98;0.80;;;7.10;99.90;;;;;;6323031;23;20000;-72
2023/01/14 03:24:45;;;;;;;1.02;0.80;;;7.10;99.90;;;;;;6326029;23;20012;-72
2023/01/14 03:27:26;;;;;;;2.15;1.20;;;7.20;99.90;;;;;;6300468;23;20198;-75
2023/01/14 03:30:03;;;;;;;1.98;1.15;;;7.10;99.90;;;;;;6300822;23;20001;-70
2023/01/14 03:32:45;;;;;;;0.73;0.73;;;7.10;99.90;;;;;;6300598;23;20246;-74
2023/01/14 03:35:44;;;;;;;0.93;0.60;;;7.00;99.90;;;;;;6324714;23;20016;-70
2023/01/14 03:38:32;;;;;;;2.78;1.15;;;7.00;99.90;;;;;;6326062;23;19998;-73
2023/01/14 03:41:06;;;;;;;1.63;0.88;;;7.00;99.90;;;;;;6301301;23;20392;-71
2023/01/14 03:43:48;;;;;;;1.00;0.88;;;7.00;99.90;;;;;;6300507;23;20425;-70
2023/01/14 03:46:23;;;;;;;0.80;0.80;;;7.00;99.90;;;;;;6300377;23;20059;-73
2023/01/14 03:49:00;;;;;;;0.77;0.77;;;7.10;99.90;;;;;;6326477;23;20006;-73
2023/01/14 03:52:02;;;;;;;1.48;0.93;;;7.00;99.90;;;;;;6299204;23;20004;-71
2023/01/14 03:55:00;;;;;;;2.85;1.42;;;7.00;99.90;;;;;;6299924;23;20360;-73
2023/01/14 03:57:59;;;;;;;1.20;0.80;;;7.00;99.90;;;;;;6232590;23;20452;-73
2023/01/14 04:00:38;;;;;;;3.83;1.00;;;7.00;99.90;;;;;;6233880;23;20009;-71
2023/01/14 04:03:18;;;;;;;1.10;1.10;;;7.00;99.90;;;;;;6233595;23;20007;-72
2023/01/14 04:05:51;;;;;;;1.60;1.25;;;7.00;99.90;;;;;;6224757;23;20014;-75
2023/01/14 04:08:24;;;;;;;1.88;1.15;;;7.00;99.90;;;;;;6235790;23;20013;-68
2023/01/14 04:10:56;;;;;;;2.67;0.77;;;7.00;99.90;;;;;;6210385;23;20006;-72
2023/01/14 04:16:20;;;;;;;2.25;1.00;;;6.90;99.90;;;;;;6235048;23;20074;-71
2023/01/14 04:18:51;;;;;;;1.27;0.60;;;6.90;99.90;;;;;;6209675;23;20001;-74
2023/01/14 04:21:22;;;;;;;1.67;0.90;;;6.80;99.90;;;;;;6229988;23;20059;-72
2023/01/14 04:23:53;;;;;;;0.90;0.90;;;6.80;99.90;;;;;;6232581;23;20016;-73
2023/01/14 04:26:28;;;;;;;1.27;0.75;;;6.80;99.90;;;;;;6209645;23;20313;-70
2023/01/14 04:28:59;;;;;;;1.98;0.80;;;6.80;99.90;;;;;;6209767;23;20093;-73
2023/01/14 04:31:36;;;;;;;0.95;0.90;;;6.80;99.90;;;;;;6232725;23;20001;-73
2023/01/14 04:34:11;;;;;;;0.93;0.88;;;6.70;99.90;;;;;;6211177;23;20010;-76
2023/01/14 04:36:49;;;;;;;2.70;0.90;;;6.60;99.90;;;;;;6208170;23;20002;-70
2023/01/14 04:39:25;;;;;;;2.13;0.82;;;6.60;99.90;;;;;;6233710;23;20002;-71
2023/01/14 04:44:59;;;;;;;5.40;1.23;;;6.60;99.90;;;;;;6232145;23;20003;-71
2023/01/14 04:47:31;;;;;;;1.95;0.93;;;6.60;99.90;;;;;;6232715;23;20000;-74
2023/01/14 04:53:05;;;;;;;0.88;0.82;;;6.60;99.90;;;;;;6232291;23;20000;-74
2023/01/14 04:55:41;;;;;;;1.13;0.82;;;6.50;99.90;;;;;;6208589;23;20003;-72
2023/01/14 04:58:17;;;;;;;0.93;0.82;;;6.40;99.90;;;;;;6232811;23;19995;-73
2023/01/14 05:00:51;;;;;;;0.70;0.70;;;6.40;99.90;;;;;;6257056;23;20277;-76
2023/01/14 05:03:30;;;;;;;1.67;1.25;;;6.60;99.90;;;;;;6209822;23;20437;-74
2023/01/14 05:06:02;;;;;;;1.27;1.17;;;6.60;99.90;;;;;;6200078;23;20019;-71
2023/01/14 05:08:37;;;;;;;0.85;0.60;;;6.50;99.90;;;;;;6233779;23;20006;-72
2023/01/14 05:11:11;;;;;;;2.47;0.75;;;6.60;99.90;;;;;;6210325;23;20242;-74
2023/01/14 05:13:45;;;;;;;0.77;0.77;;;6.60;99.90;;;;;;6210021;23;20007;-73
2023/01/14 05:16:16;;;;;;;2.63;1.00;;;6.50;99.90;;;;;;6211041;23;19999;-76
2023/01/14 05:18:51;;;;;;;1.65;1.08;;;6.60;99.90;;;;;;6234922;23;20447;-72
2023/01/14 05:21:24;;;;;;;;;;;6.70;99.90;;;;;;6208215;23;20480;-71
2023/01/14 05:23:56;;;;;;;1.17;0.70;;;6.80;99.90;;;;;;6211731;23;19910;-74
2023/01/14 05:26:27;;;;;;;1.13;0.80;;;6.90;99.90;;;;;;6235930;23;19995;-71
2023/01/14 05:29:04;;;;;;;0.52;0.50;;;7.00;99.90;;;;;;6235907;23;20050;-70
2023/01/14 05:31:36;;;;;;;0.93;0.60;;;7.00;99.90;;;;;;6210265;23;20044;-71
2023/01/14 05:34:07;;;;;;;0.85;0.65;;;7.00;99.90;;;;;;6234420;23;19995;-73
2023/01/14 05:36:39;;;;;;;1.88;1.25;;;7.00;99.90;;;;;;6208503;23;20297;-71
2023/01/14 05:39:10;;;;;;;2.63;1.05;;;7.10;99.90;;;;;;6235048;23;20014;-73
2023/01/14 05:45:37;;;;;;;1.30;1.00;;;7.10;99.90;;;;;;6233959;23;20003;-76
2023/01/14 05:47:22;;;;;;;1.55;0.65;;;7.10;99.90;;;;;;6233292;23;20070;-69
2023/01/14 05:49:55;;;;;;;1.35;0.85;;;7.00;99.90;;;;;;6234321;23;20421;-73
2023/01/14 05:52:27;;;;;;;4.03;0.80;;;6.90;99.90;;;;;;6231175;23;20003;-74
2023/01/14 05:54:58;;;;;;;1.60;0.75;;;7.00;99.90;;;;;;6209466;23;20013;-74
2023/01/14 05:57:32;;;;;;;1.15;0.90;;;6.90;99.90;;;;;;6233441;23;19995;-71
2023/01/14 06:00:07;;;;;;;1.73;0.68;;;6.90;99.90;;;;;;6235842;23;20050;-72
2023/01/14 06:08:26;;;;;;;3.67;1.08;;;6.80;99.90;;;;;;6229861;23;20078;-72
2023/01/14 06:11:01;;;;;;;6.10;0.90;;;6.70;99.90;;;;;;6234858;23;20075;-71
2023/01/14 06:13:34;;;;;;;1.20;1.10;;;6.70;99.90;;;;;;6209273;23;20030;-70
2023/01/14 06:16:10;;;;;;;2.80;0.60;;;6.60;99.90;;;;;;6233412;23;20014;-74
2023/01/14 06:18:42;;;;;;;3.55;0.93;;;6.60;99.90;;;;;;6210324;23;20010;-72
2023/01/14 06:21:17;;;;;;;0.73;0.60;;;6.60;99.90;;;;;;6230524;23;20215;-73
2023/01/14 06:23:55;;;;;;;1.48;0.80;;;6.70;99.90;;;;;;6234450;23;19999;-70
2023/01/14 06:26:32;;;;;;;2.75;0.75;;;6.60;99.90;;;;;;6210704;23;20003;-72
2023/01/14 06:29:08;;;;;;;0.70;0.70;;;6.60;99.90;;;;;;6210347;23;20312;-73
2023/01/14 06:31:41;;;;;;;2.35;0.70;;;6.60;99.90;;;;;;6209377;23;19999;-74
2023/01/14 06:34:12;;;;;;;0.70;0.70;;;6.60;99.90;;;;;;6209090;23;20172;-73
2023/01/14 06:36:46;;;;;;;2.15;0.98;;;6.60;99.90;;;;;;6231934;23;20039;-70
2023/01/14 06:39:18;;;;;;;2.22;0.95;;;6.50;99.90;;;;;;6234758;23;20079;-71
2023/01/14 06:41:51;;;;;;;3.80;0.73;;;6.50;99.90;;;;;;6332974;23;20270;-75
2023/01/14 06:44:23;;;;;;;1.37;0.80;;;6.50;99.90;;;;;;6244924;23;20486;-71
2023/01/14 06:47:00;;;;;;;3.10;1.17;;;6.40;99.90;;;;;;6233718;23;20011;-70
2023/01/14 06:49:31;;;;;;;1.83;1.05;;;6.50;99.90;;;;;;6331154;23;20007;-71
2023/01/14 06:52:02;;;;;;;1.58;0.98;;;6.50;99.90;;;;;;6230759;23;19999;-73
2023/01/14 06:54:35;;;;;;;1.75;0.80;;;6.40;99.90;;;;;;6233006;23;20003;-74
2023/01/14 06:57:06;;;;;;;3.85;0.80;;;6.50;99.90;;;;;;6209085;23;20001;-76
2023/01/14 06:59:40;;;;;;;2.72;0.90;;;6.40;99.90;;;;;;6232860;23;20372;-72
2023/01/14 07:02:13;;;;;;;1.98;1.02;;;6.50;99.90;;;;;;6186911;23;20022;-73
2023/01/14 07:04:45;;;;;;;2.17;0.82;;;6.50;99.90;;;;;;6202674;23;20061;-71
2023/01/14 07:07:17;;;;;;;3.83;1.88;;;6.40;99.90;;;;;;6208345;23;20007;-74
2023/01/14 07:09:51;;;;;;;0.80;0.70;;;6.50;99.90;;;;;;6209948;23;20011;-72
2023/01/14 07:12:22;;;;;;;4.60;1.17;;;6.60;99.90;;;;;;6246510;23;20054;-69
2023/01/14 07:14:56;;;;;;;6.32;0.85;;;6.70;99.90;;;;;;6226414;23;20007;-69
2023/01/14 07:17:27;;;;;;;2.50;1.13;;;6.70;99.90;;;;;;6210863;23;20420;-73
2023/01/14 07:19:58;;;;;;;0.80;0.70;;;6.70;99.90;;;;;;6228818;23;20004;-73
2023/01/14 07:22:30;;;;;;;3.10;0.80;;;6.80;99.90;;;;;;6210310;23;20358;-70
2023/01/14 07:25:05;;;;;;;4.78;0.88;;;6.80;99.90;;;;;;6200195;23;20011;-75
2023/01/14 07:27:37;;;;;;;;;;;6.80;99.90;;;;;;6232388;23;20003;-72
2023/01/14 07:30:12;;;;;;;2.78;0.80;;;6.90;99.90;;;;;;6209969;23;20071;-74
2023/01/14 07:32:45;;;;;;;1.85;1.00;;;7.00;99.90;;;;;;6210535;23;20054;-74
2023/01/14 07:35:17;;;;;;;3.40;0.90;;;7.10;99.90;;;;;;6205823;23;20280;-71
2023/01/14 07:37:48;;;;;;;2.17;1.10;;;7.10;99.90;;;;;;6210598;23;20007;-72
2023/01/14 07:40:19;;;;;;;3.75;0.82;;;7.10;99.90;;;;;;6208806;23;19999;-74
2023/01/14 07:42:59;;;;;;;1.90;0.70;;;7.10;99.90;;;;;;6210524;23;20055;-72
2023/01/14 07:45:31;;;;;;;1.70;0.70;;;7.10;99.90;;;;;;6231998;23;20008;-70
2023/01/14 07:48:02;;;;;;;2.72;0.90;;;7.10;99.90;;;;;;6209501;23;20014;-70
2023/01/14 07:50:38;;;;;;;4.10;0.85;;;7.10;99.90;;;;;;6206880;23;20004;-75
2023/01/14 07:53:14;;;;;;;3.03;1.05;;;7.10;99.90;;;;;;6209379;23;20003;-70
2023/01/14 07:55:47;;;;;;;6.22;0.80;;;7.10;99.90;;;;;;6327379;23;20051;-74
2023/01/14 07:58:21;;;;;;;3.22;1.08;;;7.10;99.90;;;;;;6232172;23;20006;-72
2023/01/14 08:00:53;;;;;;;1.77;1.30;;;7.20;99.90;;;;;;6208022;23;19995;-69
2023/01/14 08:03:25;;;;;;;3.40;0.90;;;7.30;99.90;;;;;;6231996;23;20009;-68
2023/01/14 08:06:02;;;;;;;1.85;0.77;;;7.30;99.90;;;;;;6201707;23;20055;-72
2023/01/14 08:08:36;;;;;;;0.75;0.60;;;7.40;99.90;;;;;;6209060;23;20058;-73
2023/01/14 08:11:09;;;;;;;1.95;1.05;;;7.50;99.90;;;;;;6233992;23;20009;-74
2023/01/14 08:13:41;;;;;;;3.42;0.93;;;7.50;99.90;;;;;;6232718;23;19999;-71
2023/01/14 08:16:13;;;;;;;2.28;1.20;;;7.50;99.90;;;;;;6232791;23;20499;-75
2023/01/14 08:18:45;;;;;;;5.03;1.13;;;7.60;99.90;;;;;;6233683;23;20079;-70
2023/01/14 08:21:16;;;;;;;1.55;0.65;;;7.60;99.90;;;;;;6230558;23;20014;-72
2023/01/14 08:23:50;;;;;;;1.42;0.93;;;7.70;99.90;;;;;;6209861;23;19999;-74
2023/01/14 08:26:21;;;;;;;1.35;1.13;;;7.70;99.90;;;;;;6187042;23;20011;-72
2023/01/14 08:28:55;;;;;;;2.35;0.95;;;7.80;99.90;;;;;;6209110;23;19995;-74
2023/01/14 08:31:26;;;;;;;2.30;1.57;;;7.80;99.90;;;;;;6209593;23;20003;-76
2023/01/14 08:34:04;;;;;;;1.52;1.00;;;7.90;99.90;;;;;;6235268;23;19995;-73
2023/01/14 08:36:37;;;;;;;1.83;0.88;;;8.00;99.90;;;;;;6233005;23;20005;-73
2023/01/14 08:39:14;;;;;;;4.93;1.00;;;8.10;99.90;;;;;;6233325;23;20006;-71
2023/01/14 08:41:45;;;;;;;3.50;0.93;;;8.00;99.90;;;;;;6210944;23;19996;-70
2023/01/14 08:44:19;;;;;;;1.98;0.90;;;8.10;99.90;;;;;;6235778;23;19995;-72
2023/01/14 08:46:56;;;;;;;4.05;1.60;;;8.20;99.90;;;;;;6234689;23;19999;-75
2023/01/14 08:49:31;;;;;;;2.47;1.08;;;8.30;99.90;;;;;;6211117;23;20018;-71
2023/01/14 08:52:05;;;;;;;4.15;0.90;;;8.30;99.90;;;;;;6185961;23;20010;-72
2023/01/14 08:54:44;;;;;;;1.55;1.05;;;8.40;99.90;;;;;;6209572;23;20005;-74
2023/01/14 08:57:15;;;;;;;2.92;0.90;;;8.50;99.90;;;;;;6233249;23;20033;-71
2023/01/14 08:59:49;;;;;;;2.55;1.23;;;8.60;99.90;;;;;;6233983;23;20479;-68
2023/01/14 09:02:26;;;;;;;1.55;0.80;;;8.60;99.90;;;;;;6209138;23;20315;-74
2023/01/14 09:05:01;;;;;;;3.22;0.80;;;8.70;99.90;;;;;;6319887;23;20023;-70
2023/01/14 09:18:56;;;;;;;4.00;1.60;;;9.00;99.90;;;;;;6245755;23;19999;-74
2023/01/14 09:21:31;;;;;;;2.28;1.33;;;9.20;99.90;;;;;;6209992;23;19996;-72
2023/01/14 09:24:02;;;;;;;5.70;0.90;;;9.30;99.90;;;;;;6210043;23;20020;-76
2023/01/14 09:26:34;;;;;;;3.40;1.27;;;9.30;99.90;;;;;;6211988;23;20015;-73
2023/01/14 09:29:05;;;;;;;2.70;0.90;;;9.20;99.90;;;;;;6233933;23;20319;-72
2023/01/14 09:31:41;;;;;;;3.90;1.38;;;9.10;99.90;;;;;;6233238;23;20003;-74
2023/01/14 09:34:15;;;;;;;2.17;0.90;;;9.20;99.90;;;;;;6210160;23;19996;-72
2023/01/14 09:36:46;;;;;;;5.95;2.08;;;9.20;99.90;;;;;;6244911;23;19991;-73
2023/01/14 09:39:20;;;;;;;3.42;0.80;;;9.20;99.90;;;;;;6233491;23;20449;-74
2023/01/14 09:41:55;;;;;;;1.60;1.02;;;9.30;99.90;;;;;;6235618;23;20007;-74
2023/01/14 09:44:27;;;;;;;3.30;0.93;;;9.20;99.90;;;;;;6233313;23;20007;-74
2023/01/14 09:46:58;;;;;;;4.47;1.20;;;9.40;99.90;;;;;;6209971;23;20054;-73
2023/01/14 09:49:30;;;;;;;1.90;1.23;;;9.40;99.90;;;;;;6234835;23;19991;-73
2023/01/14 09:52:26;;;;;;;1.20;0.65;;;9.40;99.90;;;;;;6208849;23;20000;-73
2023/01/14 09:55:12;;;;;;;5.25;1.27;;;9.60;99.90;;;;;;6236472;23;20054;-73
2023/01/14 09:57:59;;;;;;;2.15;0.88;;;9.70;99.90;;;;;;6209994;23;20058;-71
2023/01/14 10:01:06;;;;;;;1.67;1.02;;;10.00;99.90;;;;;;6210497;23;20007;-75
2023/01/14 10:04:16;;;;;;;8.75;1.90;;;10.20;99.90;;;;;;6301282;23;20013;-71
2023/01/14 10:06:51;;;;;;;0.77;0.57;;;10.50;99.90;;;;;;6261625;23;20418;-74
2023/01/14 10:09:36;;;;;;;4.22;1.15;;;10.60;99.90;;;;;;6326377;23;19993;-74
2023/01/14 10:12:15;;;;;;;7.43;1.33;;;10.80;99.90;;;;;;6326158;23;20002;-69
2023/01/14 10:14:55;;;;;;;1.85;1.02;;;10.80;99.90;;;;;;6302199;23;20013;-73
2023/01/14 10:17:40;;;;;;;1.15;0.80;;;10.90;99.90;;;;;;6277684;23;20004;-71
2023/01/14 10:20:20;;;;;;;2.60;1.48;;;11.20;99.90;;;;;;6299913;23;20400;-70
2023/01/14 10:23:00;;;;;;;4.28;0.98;;;11.30;99.90;;;;;;6324687;23;20040;-70
2023/01/14 10:25:34;;;;;;;2.38;0.93;;;11.30;99.90;;;;;;6298559;23;20006;-71
2023/01/14 10:28:17;;;;;;;3.27;1.20;;;11.40;99.90;;;;;;6324280;23;20129;-72
2023/01/14 10:30:54;;;;;;;1.88;1.00;;;11.60;99.90;;;;;;6299322;23;19994;-73
2023/01/14 10:33:27;;;;;;;5.03;1.40;;;11.90;99.90;;;;;;6299519;23;19990;-72
2023/01/14 10:36:04;;;;;;;1.50;0.80;;;12.10;99.90;;;;;;6295735;23;20208;-72
2023/01/14 10:38:39;;;;;;;6.15;1.20;;;11.90;99.90;;;;;;6265033;23;19995;-72
2023/01/14 10:41:12;;;;;;;3.35;0.90;;;11.90;99.90;;;;;;6234661;23;20046;-71
2023/01/14 10:43:50;;;;;;;2.40;1.50;;;12.70;99.90;;;;;;6234870;23;20062;-71
2023/01/14 10:46:22;;;;;;;2.38;1.20;;;12.60;99.90;;;;;;6235745;23;20187;-71
2023/01/14 10:49:07;;;;;;;1.92;1.00;;;12.70;99.90;;;;;;6209644;23;20536;-72
2023/01/14 10:51:47;;;;;;;1.27;1.10;;;12.50;99.90;;;;;;6229457;23;19995;-76
2023/01/14 10:54:24;;;;;;;1.48;0.80;;;12.70;99.90;;;;;;6232303;23;20018;-73
2023/01/14 10:56:56;;;;;;;1.63;1.35;;;13.10;99.90;;;;;;6232108;23;20002;-70
2023/01/14 10:59:43;;;;;;;0.88;0.88;;;12.50;99.90;;;;;;6209365;23;19995;-70
2023/01/14 11:02:34;;;;;;;4.88;1.98;;;13.10;99.90;;;;;;6232682;23;20011;-72
2023/01/14 11:05:30;;;;;;;3.53;2.38;;;13.70;99.90;;;;;;6189200;23;20011;-70
2023/01/14 11:08:13;;;;;;;4.07;1.98;;;14.40;99.90;;;;;;6226287;23;20405;-73
2023/01/14 11:10:56;;;;;;;6.38;3.25;;;14.50;99.90;;;;;;6232387;23;20324;-72
2023/01/14 11:13:36;;;;;;;3.85;2.10;;;15.80;99.90;;;;;;6209026;23;20007;-71
2023/01/14 11:16:27;;;;;;;6.88;4.05;;;16.50;99.90;;;;;;6234081;23;20005;-72
2023/01/14 11:19:21;;;;;;;1.20;1.10;;;17.00;99.90;;;;;;6232520;23;20004;-68
2023/01/14 11:21:59;;;;;;;2.20;1.40;;;17.00;99.90;;;;;;6232875;23;19995;-69
2023/01/14 11:24:52;;;;;;;2.55;1.23;;;17.20;99.90;;;;;;6232333;23;19995;-70
2023/01/14 11:27:25;;;;;;;1.55;0.93;;;17.40;99.90;;;;;;6232700;23;20007;-70
2023/01/14 11:30:02;;;;;;;4.28;1.00;;;16.90;99.90;;;;;;6209943;23;20046;-71
2023/01/14 11:32:37;;;;;;;2.35;1.80;;;17.30;99.90;;;;;;6232988;23;20307;-70
2023/01/14 11:35:33;;;;;;;2.63;1.35;;;16.80;99.90;;;;;;6233166;23;20119;-67
2023/01/14 11:38:06;;;;;;;1.00;0.70;;;17.20;99.90;;;;;;6234775;23;20047;-69
2023/01/14 11:43:28;;;;;;;1.13;0.90;;;18.20;99.90;;;;;;6232585;23;20007;-71
2023/01/14 11:46:15;;;;;;;4.22;1.20;;;16.70;99.90;;;;;;6234543;23;20308;-71
2023/01/14 11:49:11;;;;;;;2.72;1.50;;;15.80;99.90;;;;;;6256737;23;19998;-73
2023/01/14 11:52:08;;;;;;;3.00;0.90;;;15.20;99.90;;;;;;6230267;23;20174;-70
2023/01/14 11:54:47;;;;;;;1.27;1.17;;;14.90;99.90;;;;;;6209929;23;19995;-69
2023/01/14 11:57:21;;;;;;;2.53;1.38;;;15.10;99.90;;;;;;6231183;23;20005;-69
2023/01/14 11:59:54;;;;;;;2.90;1.10;;;15.00;99.90;;;;;;6208879;23;20029;-73
2023/01/14 12:02:37;;;;;;;2.85;1.00;;;13.30;99.90;;;;;;6233513;23;20014;-69
2023/01/14 12:05:15;;;;;;;2.67;1.23;;;13.10;99.90;;;;;;6220691;23;20019;-68
2023/01/14 12:07:53;;;;;;;2.40;1.58;;;13.10;99.90;;;;;;6210024;23;20007;-74
2023/01/14 12:10:37;;;;;;;3.03;1.55;;;13.60;99.90;;;;;;6231064;23;20363;-71
2023/01/14 12:16:49;;;;;;;3.03;1.48;;;13.00;99.90;;;;;;6231255;23;20294;-72
2023/01/14 12:19:32;;;;;;;1.13;1.00;;;13.00;99.90;;;;;;6242018;23;19999;-71
2023/01/14 12:22:15;;;;;;;3.88;1.27;;;14.00;99.90;;;;;;6229313;23;20215;-72
2023/01/14 12:25:11;;;;;;;1.40;1.00;;;14.70;99.90;;;;;;6232730;23;20471;-71
2023/01/14 12:28:01;;;;;;;1.30;1.20;;;15.50;99.90;;;;;;6208667;23;20007;-71
2023/01/14 12:30:51;;;;;;;3.10;1.10;;;16.10;99.90;;;;;;6231995;23;20003;-70
2023/01/14 12:33:35;;;;;;;1.17;0.95;;;16.60;99.90;;;;;;6230808;23;20379;-69
2023/01/14 12:36:16;;;;;;;3.65;0.95;;;16.10;99.90;;;;;;6230831;23;20009;-70
2023/01/14 12:47:53;;;;;;;3.53;1.20;;;17.10;99.90;;;;;;6230947;23;20007;-71
2023/01/14 12:50:28;;;;;;;2.50;1.17;;;17.30;99.90;;;;;;6206794;23;19995;-71
2023/01/14 12:53:02;;;;;;;1.27;1.17;;;17.40;99.90;;;;;;6233251;23;19991;-69
2023/01/14 12:55:38;;;;;;;2.55;1.30;;;18.30;99.90;;;;;;6185109;23;20101;-71
2023/01/14 12:58:20;;;;;;;2.45;0.93;;;19.00;99.90;;;;;;6231249;23;20006;-70
2023/01/14 13:00:59;;;;;;;2.28;0.93;;;19.80;99.90;;;;;;6231454;23;20013;-72
2023/01/14 13:03:36;;;;;;;1.77;1.00;;;20.00;99.90;;;;;;6231783;23;20017;-70
2023/01/14 13:06:30;;;;;;;1.73;0.90;;;20.00;99.90;;;;;;6199386;23;20007;-70
2023/01/14 13:09:05;;;;;;;1.10;0.95;;;19.70;99.90;;;;;;6241211;23;20014;-72
2023/01/14 13:11:45;;;;;;;3.28;1.23;;;19.10;99.90;;;;;;6208702;23;20284;-73
2023/01/14 13:14:25;;;;;;;3.00;1.10;;;18.00;99.90;;;;;;6208937;23;20007;-73
2023/01/14 13:17:32;;;;;;;1.75;0.85;;;17.80;99.90;;;;;;6208393;23;19995;-70
2023/01/14 13:20:29;;;;;;;1.25;1.10;;;16.10;99.90;;;;;;6232760;23;20008;-70
2023/01/14 13:23:01;;;;;;;3.55;1.25;;;15.70;99.90;;;;;;6232175;23;19999;-72
2023/01/14 13:25:33;;;;;;;1.27;0.90;;;16.10;99.90;;;;;;6208683;23;20315;-71
2023/01/14 13:28:11;;;;;;;2.50;0.95;;;16.10;99.90;;;;;;6211453;23;20017;-73
2023/01/14 13:30:53;;;;;;;1.95;1.00;;;16.30;99.90;;;;;;6209291;23;19996;-71
2023/01/14 13:33:32;;;;;;;4.15;1.20;;;16.70;99.90;;;;;;6210230;23;20011;-72
2023/01/14 13:36:08;;;;;;;1.77;1.42;;;16.50;99.90;;;;;;6207120;23;20199;-69
2023/01/14 13:39:04;;;;;;;3.85;1.10;;;15.30;99.90;;;;;;6207960;23;20010;-72
2023/01/14 13:41:38;;;;;;;1.33;0.95;;;14.30;99.90;;;;;;6234600;23;19997;-71
2023/01/14 13:44:30;;;;;;;2.08;1.50;;;13.60;99.90;;;;;;6209125;23;20014;-71
2023/01/14 13:47:29;;;;;;;2.45;1.42;;;14.10;99.90;;;;;;6230986;23;20017;-70
2023/01/14 13:50:31;;;;;;;2.58;1.15;;;15.10;99.90;;;;;;6234201;23;20326;-70
2023/01/14 13:53:27;;;;;;;1.38;1.10;;;15.40;99.90;;;;;;6209529;23;20475;-69
2023/01/14 13:56:01;;;;;;;3.40;1.15;;;15.10;99.90;;;;;;6230957;23;19999;-70
2023/01/14 13:58:35;;;;;;;1.63;1.20;;;14.20;99.90;;;;;;6233810;23;20000;-70
2023/01/14 14:01:28;;;;;;;2.35;1.20;;;14.20;99.90;;;;;;6231067;23;20551;-68
2023/01/14 14:04:03;;;;;;;2.40;0.90;;;13.80;99.90;;;;;;6208993;23;19999;-69
2023/01/14 14:06:44;;;;;;;1.02;0.93;;;13.50;99.90;;;;;;6196653;23;20030;-71
2023/01/14 14:09:21;;;;;;;2.05;1.20;;;13.10;99.90;;;;;;6232499;23;20026;-73
2023/01/14 14:12:07;;;;;;;2.20;1.20;;;12.70;99.90;;;;;;6207702;23;20010;-72
2023/01/14 14:14:45;;;;;;;2.85;1.58;;;12.40;99.90;;;;;;6231997;23;20046;-71
2023/01/14 14:17:37;;;;;;;4.25;1.30;;;12.10;99.90;;;;;;6243899;23;20448;-72
2023/01/14 14:20:16;;;;;;;2.35;1.25;;;12.00;99.90;;;;;;6207048;23;20370;-69
2023/01/14 14:23:03;;;;;;;3.63;1.45;;;11.80;99.90;;;;;;6209432;23;20006;-70
2023/01/14 14:25:38;;;;;;;2.10;0.98;;;11.70;99.90;;;;;;6233329;23;20005;-72
2023/01/14 14:28:20;;;;;;;2.28;1.13;;;11.60;99.90;;;;;;6209351;23;19999;-70
2023/01/14 14:30:58;;;;;;;4.03;1.77;;;11.50;99.90;;;;;;6245381;23;20050;-72
2023/01/14 14:33:38;;;;;;;4.50;1.25;;;11.30;99.90;;;;;;6210057;23;20453;-71
2023/01/14 14:36:36;;;;;;;3.15;1.42;;;11.10;99.90;;;;;;6232686;23;20010;-72
2023/01/14 14:39:30;;;;;;;4.88;1.42;;;10.90;99.90;;;;;;6215029;23;20009;-72
2023/01/14 14:42:05;;;;;;;2.60;1.40;;;10.70;99.90;;;;;;6210015;23;20001;-73